Caribbean Galaxy — 3EZV4 — position and weather

sailwx.info

Track history (hours):
 
Tides and Currents Weather Stations Pressure Air Temp Water Temp Dewpoint Dewpoint Depression Visibility Wind Speed Wind Dir Waves Ship Positions

Caribbean Galaxy

Last reported at 2017-Jan-21 09:26 UTC. Time now 2017-Feb-27 20:25 UTC.
Position N 01°15' E 104°07'.
Warning: this ship's position is 37 days out of date.

Length 246 m; draft 9.6 m.

Type: Ship. MMSI: 357449000.

Date/timePositionNaut miles runAvg speedWind from/ knotsBaromVisibWave heightAir tempDewpointWater temp
2017-Jan-21 09:26N 01°15' E 104°07'9 9.8
2017-Jan-21 08:33N 01°14' E 103°58'10 9.6
2017-Jan-21 07:33N 01°10' E 103°49'67 8.4
2017-Jan-20 23:33N 01°38' E 102°48'2210.2
2017-Jan-20 21:23N 01°47' E 102°27'1010.5
2017-Jan-20 20:26N 01°51' E 102°18'  
2017-Jan-17 23:04N 01°59' E 102°14'4 8.2
2017-Jan-17 22:33N 01°57' E 102°17'8 8.2
2017-Jan-17 21:33N 01°53' E 102°25'8 8.2
2017-Jan-17 20:33N 01°50' E 102°32'8 8.4
2017-Jan-17 19:33N 01°46' E 102°40'8 8.5
2017-Jan-17 18:33N 01°43' E 102°47'65 8.1
2017-Jan-17 10:32N 01°09' E 103°43'8 8.1
2017-Jan-17 09:33N 01°12' E 103°50'8 8.2
2017-Jan-17 08:32N 01°15' E 103°58'  
2017-Jan-12 23:29N 01°14' E 104°01'10 9.5
2017-Jan-12 22:29N 01°11' E 103°52'12 3.6
2017-Jan-12 19:08N 01°10' E 103°40'2 4.0
2017-Jan-12 18:33N 01°11' E 103°42'0 0.0
2017-Jan-11 22:32N 01°11' E 103°42'0 0.2
2017-Jan-11 20:32N 01°11' E 103°42'  
Track history (hours):
 
Tides and Currents Weather Stations Pressure Air Temp Water Temp Dewpoint Dewpoint Depression Visibility Wind Speed Wind Dir Waves Ship Positions

Caribbean Galaxy

Last reported at 2017-Jan-21 09:26 UTC. Time now 2017-Feb-27 20:25 UTC.
Position N 01°15' E 104°07'.
Warning: this ship's position is 37 days out of date.

Length 246 m; draft 9.6 m.

Type: Ship. MMSI: 357449000.

Date/timePositionNaut miles runAvg speedWind from/ knotsBaromVisibWave heightAir tempDewpointWater temp
2017-Jan-21 09:26N 01°15' E 104°07'9 9.8
2017-Jan-21 08:33N 01°14' E 103°58'10 9.6
2017-Jan-21 07:33N 01°10' E 103°49'67 8.4
2017-Jan-20 23:33N 01°38' E 102°48'2210.2
2017-Jan-20 21:23N 01°47' E 102°27'1010.5
2017-Jan-20 20:26N 01°51' E 102°18'  
2017-Jan-17 23:04N 01°59' E 102°14'4 8.2
2017-Jan-17 22:33N 01°57' E 102°17'8 8.2
2017-Jan-17 21:33N 01°53' E 102°25'8 8.2
2017-Jan-17 20:33N 01°50' E 102°32'8 8.4
2017-Jan-17 19:33N 01°46' E 102°40'8 8.5
2017-Jan-17 18:33N 01°43' E 102°47'65 8.1
2017-Jan-17 10:32N 01°09' E 103°43'8 8.1
2017-Jan-17 09:33N 01°12' E 103°50'8 8.2
2017-Jan-17 08:32N 01°15' E 103°58'  
2017-Jan-12 23:29N 01°14' E 104°01'10 9.5
2017-Jan-12 22:29N 01°11' E 103°52'12 3.6
2017-Jan-12 19:08N 01°10' E 103°40'2 4.0
2017-Jan-12 18:33N 01°11' E 103°42'0 0.0
2017-Jan-11 22:32N 01°11' E 103°42'0 0.2
2017-Jan-11 20:32N 01°11' E 103°42'  

Dump ship's entire track history